createdAt,value
2023-01-17T00:00:08.247Z,5.84
2023-01-17T00:02:35.835Z,5.73
2023-01-17T00:05:04.664Z,5.81
2023-01-17T00:07:32.588Z,5.61
2023-01-17T00:10:01.878Z,5.54
2023-01-17T00:12:31.232Z,5.64
2023-01-17T00:14:59.573Z,5.91
2023-01-17T00:17:28.828Z,5.64
2023-01-17T00:19:57.012Z,5.90
2023-01-17T00:22:29.874Z,5.90
2023-01-17T00:24:57.859Z,5.83
2023-01-17T00:27:25.574Z,5.91
2023-01-17T00:29:53.331Z,5.99
2023-01-17T00:32:21.212Z,5.84
2023-01-17T00:34:48.875Z,5.66
2023-01-17T00:37:16.484Z,5.82
2023-01-17T00:39:44.916Z,6.21
2023-01-17T00:42:12.496Z,6.03
2023-01-17T00:44:40.191Z,5.87
2023-01-17T00:47:08.206Z,6.05
2023-01-17T00:49:35.813Z,6.02
2023-01-17T00:52:03.503Z,6.28
2023-01-17T00:54:31.408Z,6.19
2023-01-17T00:56:59.101Z,6.18
2023-01-17T00:59:26.785Z,6.33
2023-01-17T01:01:54.799Z,6.08
2023-01-17T01:04:22.621Z,6.17
2023-01-17T01:06:50.178Z,6.03
2023-01-17T01:09:18.741Z,6.09
2023-01-17T01:11:46.449Z,6.15
2023-01-17T01:14:14.037Z,6.01
2023-01-17T01:16:42.023Z,5.90
2023-01-17T01:19:09.718Z,6.07
2023-01-17T01:21:37.388Z,6.03
2023-01-17T01:24:05.563Z,5.95
2023-01-17T01:26:33.166Z,5.97
2023-01-17T01:29:00.793Z,6.07
2023-01-17T01:31:28.776Z,6.13
2023-01-17T01:33:56.419Z,5.91
2023-01-17T01:36:24.441Z,5.98
2023-01-17T01:38:52.345Z,6.01
2023-01-17T01:41:20.176Z,6.04
2023-01-17T01:43:49.219Z,6.00
2023-01-17T01:46:24.089Z,6.03
2023-01-17T01:48:51.692Z,5.84
2023-01-17T01:51:32.353Z,5.75
2023-01-17T01:54:07.919Z,5.93
2023-01-17T01:56:36.356Z,5.71
2023-01-17T01:59:07.523Z,5.76
2023-01-17T02:01:36.668Z,5.84
2023-01-17T02:04:05.670Z,5.75
2023-01-17T02:06:42.360Z,5.76
2023-01-17T02:09:12.139Z,5.49
2023-01-17T02:11:40.540Z,5.77
2023-01-17T02:14:09.104Z,5.66
2023-01-17T02:17:01.956Z,5.72
2023-01-17T02:19:54.570Z,5.75
2023-01-17T02:22:37.593Z,5.57
2023-01-17T02:25:17.462Z,5.57
2023-01-17T02:28:04.916Z,5.61
2023-01-17T02:30:37.464Z,5.77
2023-01-17T02:33:12.302Z,5.52
2023-01-17T02:35:53.439Z,5.47
2023-01-17T02:38:34.241Z,5.28
2023-01-17T02:41:27.575Z,5.81
2023-01-17T02:43:55.528Z,5.64
2023-01-17T02:46:23.162Z,5.46
2023-01-17T02:48:51.726Z,5.42
2023-01-17T02:51:19.644Z,5.65
2023-01-17T02:53:49.877Z,5.57
2023-01-17T02:56:52.282Z,5.55
2023-01-17T02:59:26.235Z,5.27
2023-01-17T03:02:38.332Z,5.35
2023-01-17T03:05:20.357Z,5.20
2023-01-17T03:07:48.327Z,5.41
2023-01-17T03:10:17.375Z,5.71
2023-01-17T03:12:45.304Z,5.75
2023-01-17T03:15:15.225Z,5.58
2023-01-17T03:17:49.482Z,5.71
2023-01-17T03:20:17.432Z,5.64
2023-01-17T03:22:45.336Z,5.69
2023-01-17T03:25:13.009Z,5.63
2023-01-17T03:27:40.664Z,5.60
2023-01-17T03:30:09.242Z,5.72
2023-01-17T03:32:36.962Z,5.70
2023-01-17T03:35:05.073Z,5.76
2023-01-17T03:37:32.976Z,5.76
2023-01-17T03:40:00.805Z,5.78
2023-01-17T03:42:28.494Z,6.02
2023-01-17T03:44:56.357Z,6.01
2023-01-17T03:47:24.111Z,6.00
2023-01-17T03:49:52.216Z,5.95
2023-01-17T03:52:20.214Z,5.96
2023-01-17T03:54:47.781Z,6.13
2023-01-17T03:57:15.425Z,6.24
2023-01-17T03:59:43.459Z,6.17
2023-01-17T04:02:11.364Z,6.13
2023-01-17T04:04:39.242Z,6.17
2023-01-17T04:07:06.820Z,6.12
2023-01-17T04:09:34.370Z,6.11
2023-01-17T04:12:02.855Z,6.17
2023-01-17T04:14:30.494Z,6.09
2023-01-17T04:16:58.240Z,6.11
2023-01-17T04:19:26.249Z,6.06
2023-01-17T04:21:53.967Z,6.09
2023-01-17T04:24:21.639Z,6.02
2023-01-17T04:26:49.610Z,6.06
2023-01-17T04:29:17.331Z,5.97
2023-01-17T04:31:45.022Z,5.96
2023-01-17T04:34:13.244Z,6.17
2023-01-17T04:36:41.117Z,6.22
2023-01-17T04:39:08.804Z,6.15
2023-01-17T04:41:36.775Z,6.03
2023-01-17T04:44:04.745Z,6.24
2023-01-17T04:46:32.365Z,6.05
2023-01-17T04:49:00.351Z,6.04
2023-01-17T04:51:27.990Z,5.94
2023-01-17T04:53:55.625Z,5.96
2023-01-17T04:56:23.486Z,5.78
2023-01-17T04:58:51.332Z,6.00
2023-01-17T05:01:20.021Z,6.07
2023-01-17T05:03:48.023Z,5.89
2023-01-17T05:06:15.918Z,5.89
2023-01-17T05:08:43.682Z,5.63
2023-01-17T05:11:11.712Z,5.66
2023-01-17T05:13:39.400Z,5.76
2023-01-17T05:16:07.204Z,5.70
2023-01-17T05:18:35.153Z,5.46
2023-01-17T05:21:03.736Z,5.66
2023-01-17T05:23:31.548Z,5.50
2023-01-17T05:25:59.628Z,5.54
2023-01-17T05:28:27.306Z,5.28
2023-01-17T05:30:54.942Z,5.29
2023-01-17T05:33:22.937Z,5.52
2023-01-17T05:35:50.657Z,5.54
2023-01-17T05:38:18.443Z,5.53
2023-01-17T05:40:46.756Z,5.40
2023-01-17T05:43:14.372Z,5.50
2023-01-17T05:45:42.134Z,5.57
2023-01-17T05:48:10.107Z,5.36
2023-01-17T05:50:38.132Z,5.41
2023-01-17T05:53:11.126Z,5.47
2023-01-17T05:55:39.519Z,5.57
2023-01-17T05:58:08.376Z,5.33
2023-01-17T06:00:50.990Z,5.26
2023-01-17T06:03:18.955Z,5.52
2023-01-17T06:05:46.698Z,5.30
2023-01-17T06:08:14.446Z,5.16
2023-01-17T06:10:42.532Z,5.07
2023-01-17T06:13:12.203Z,5.14
2023-01-17T06:15:41.268Z,5.26
2023-01-17T06:18:17.850Z,5.30
2023-01-17T06:20:52.669Z,5.19
2023-01-17T06:23:21.201Z,5.08
2023-01-17T06:25:49.461Z,5.05
2023-01-17T06:28:21.883Z,5.05
2023-01-17T06:30:50.327Z,5.14
2023-01-17T06:33:17.907Z,5.30
2023-01-17T06:35:52.721Z,5.03
2023-01-17T06:38:20.756Z,5.07
2023-01-17T06:40:48.973Z,5.11
2023-01-17T06:43:16.739Z,5.22
2023-01-17T06:45:44.609Z,5.17
2023-01-17T06:48:12.358Z,5.20
2023-01-17T06:50:40.193Z,5.00
2023-01-17T06:53:08.104Z,5.21
2023-01-17T06:55:37.534Z,4.97
2023-01-17T06:58:05.555Z,5.20
2023-01-17T07:00:33.989Z,5.11
2023-01-17T07:03:01.866Z,4.78
2023-01-17T07:05:29.772Z,4.88
2023-01-17T07:07:58.006Z,4.94
2023-01-17T07:10:25.938Z,4.96
2023-01-17T07:12:58.567Z,5.12
2023-01-17T07:15:26.555Z,5.00
2023-01-17T07:17:54.315Z,4.85
2023-01-17T07:20:21.916Z,5.06
2023-01-17T07:22:55.080Z,4.91
2023-01-17T07:25:22.648Z,5.33
2023-01-17T07:27:53.827Z,4.85
2023-01-17T07:30:23.998Z,4.91
2023-01-17T07:32:53.011Z,4.79
2023-01-17T07:35:21.527Z,4.74
2023-01-17T07:37:50.186Z,4.82
2023-01-17T07:40:19.097Z,4.73
2023-01-17T07:42:47.058Z,4.87
2023-01-17T07:45:17.177Z,4.89
2023-01-17T07:47:45.477Z,4.54
2023-01-17T07:50:13.141Z,4.54
2023-01-17T07:52:41.001Z,4.76
2023-01-17T07:55:09.601Z,4.53
2023-01-17T07:57:37.364Z,4.53
2023-01-17T08:00:05.896Z,4.66
2023-01-17T08:02:39.625Z,4.58
2023-01-17T08:05:07.712Z,4.42
2023-01-17T08:07:35.479Z,4.75
2023-01-17T08:10:03.256Z,4.60
2023-01-17T08:12:31.310Z,4.46
2023-01-17T08:14:59.017Z,4.78
2023-01-17T08:17:26.626Z,4.76
2023-01-17T08:19:54.672Z,5.02
2023-01-17T08:22:22.311Z,4.71
2023-01-17T08:24:49.906Z,4.60
2023-01-17T08:27:17.723Z,4.74
2023-01-17T08:29:45.369Z,5.07
2023-01-17T08:32:13.127Z,4.72
2023-01-17T08:34:41.305Z,5.03
2023-01-17T08:37:09.886Z,5.11
2023-01-17T08:39:37.624Z,4.98
2023-01-17T08:42:05.880Z,5.22
2023-01-17T08:44:34.603Z,5.24
2023-01-17T08:47:02.501Z,5.21
2023-01-17T08:49:30.490Z,4.79
2023-01-17T08:51:58.272Z,5.23
2023-01-17T08:54:25.893Z,4.85
2023-01-17T08:56:53.849Z,5.26
2023-01-17T08:59:21.877Z,4.77
2023-01-17T09:01:49.570Z,5.39
2023-01-17T09:04:17.945Z,5.49
2023-01-17T09:06:45.570Z,5.29
2023-01-17T09:09:13.448Z,5.38
2023-01-17T09:11:41.519Z,5.03
2023-01-17T09:14:12.463Z,5.52
2023-01-17T09:16:40.187Z,5.32
2023-01-17T09:19:09.173Z,5.24
2023-01-17T09:21:36.899Z,5.32
2023-01-17T09:24:04.761Z,5.28
2023-01-17T09:26:32.872Z,5.31
2023-01-17T09:29:00.486Z,5.08
2023-01-17T09:31:28.236Z,5.19
2023-01-17T09:33:57.483Z,5.66
2023-01-17T09:36:25.985Z,5.74
2023-01-17T09:38:58.451Z,6.26
2023-01-17T09:41:35.388Z,5.93
2023-01-17T09:44:08.051Z,6.10
2023-01-17T09:46:44.824Z,6.13
2023-01-17T09:49:38.765Z,5.91
2023-01-17T09:52:08.867Z,6.02
2023-01-17T09:54:41.758Z,6.18
2023-01-17T09:57:40.603Z,6.04
2023-01-17T10:00:20.216Z,6.26
2023-01-17T10:02:48.251Z,5.94
2023-01-17T10:05:33.896Z,6.28
2023-01-17T10:08:07.939Z,6.91
2023-01-17T10:10:42.013Z,7.00
2023-01-17T10:13:19.081Z,7.16
2023-01-17T10:16:14.599Z,7.05
2023-01-17T10:18:51.642Z,7.55
2023-01-17T10:21:52.807Z,7.96
2023-01-17T10:24:43.880Z,8.09
2023-01-17T10:27:27.471Z,8.12
2023-01-17T10:29:55.466Z,8.26
2023-01-17T10:32:26.044Z,8.63
2023-01-17T10:35:01.745Z,8.67
2023-01-17T10:37:42.659Z,8.67
2023-01-17T10:40:24.821Z,8.50
2023-01-17T10:42:57.912Z,8.00
2023-01-17T10:45:27.378Z,8.79
2023-01-17T10:48:05.088Z,8.96
2023-01-17T10:50:44.139Z,8.80
2023-01-17T10:53:25.115Z,9.11
2023-01-17T10:55:53.175Z,9.15
2023-01-17T10:58:21.440Z,9.37
2023-01-17T11:00:55.860Z,9.17
2023-01-17T11:03:23.835Z,9.46
2023-01-17T11:06:26.485Z,9.67
2023-01-17T11:08:59.315Z,9.48
2023-01-17T11:11:32.359Z,9.64
2023-01-17T11:14:01.758Z,9.96
2023-01-17T11:16:30.245Z,9.56
2023-01-17T11:19:30.453Z,9.63
2023-01-17T11:22:00.781Z,10.10
2023-01-17T11:24:36.558Z,9.80
2023-01-17T11:27:08.329Z,10.42
2023-01-17T11:29:38.727Z,9.52
2023-01-17T11:32:31.194Z,9.92
2023-01-17T11:35:16.481Z,10.04
2023-01-17T11:38:02.659Z,10.19
2023-01-17T11:40:32.459Z,10.05
2023-01-17T11:43:12.576Z,10.57
2023-01-17T11:45:40.800Z,10.79
2023-01-17T11:48:08.669Z,10.27
2023-01-17T11:50:38.727Z,10.14
2023-01-17T11:53:23.559Z,11.21
2023-01-17T11:56:09.385Z,10.85
2023-01-17T11:58:40.689Z,10.58
2023-01-17T12:01:08.817Z,10.42
2023-01-17T12:03:44.963Z,10.45
2023-01-17T12:06:57.307Z,10.98
2023-01-17T12:09:35.849Z,10.87
2023-01-17T12:12:26.219Z,11.45
2023-01-17T12:15:22.861Z,12.57
2023-01-17T12:17:53.095Z,12.51
2023-01-17T12:20:35.444Z,12.96
2023-01-17T12:23:35.314Z,13.71
2023-01-17T12:26:30.385Z,12.60
2023-01-17T12:29:35.964Z,12.20
2023-01-17T12:32:18.452Z,12.52
2023-01-17T12:35:18.285Z,13.20
2023-01-17T12:38:00.380Z,11.42
2023-01-17T12:40:37.468Z,11.86
2023-01-17T12:43:15.562Z,10.65
2023-01-17T12:45:45.225Z,10.57
2023-01-17T12:48:18.149Z,10.63
2023-01-17T12:51:23.492Z,10.47
2023-01-17T12:53:54.862Z,9.64
2023-01-17T12:56:35.847Z,10.25
2023-01-17T12:59:18.970Z,9.76
2023-01-17T13:01:54.700Z,9.63
2023-01-17T13:04:58.499Z,9.34
2023-01-17T13:07:44.204Z,9.51
2023-01-17T13:10:44.637Z,9.57
2023-01-17T13:13:27.358Z,9.63
2023-01-17T13:16:02.868Z,9.24
2023-01-17T13:18:30.689Z,9.01
2023-01-17T13:21:29.277Z,9.19
2023-01-17T13:23:57.616Z,9.02
2023-01-17T13:26:56.253Z,9.15
2023-01-17T13:29:59.585Z,9.22
2023-01-17T13:32:43.325Z,8.97
2023-01-17T13:35:40.485Z,8.98
2023-01-17T13:39:02.815Z,8.67
2023-01-17T13:41:36.306Z,8.78
2023-01-17T13:44:04.681Z,8.74
2023-01-17T13:46:58.446Z,8.67
2023-01-17T13:49:28.853Z,9.02
2023-01-17T13:52:18.882Z,9.09
2023-01-17T13:54:49.382Z,8.99
2023-01-17T13:57:28.541Z,8.86
2023-01-17T13:59:59.350Z,8.88
2023-01-17T14:02:32.631Z,9.18
2023-01-17T14:05:13.199Z,9.07
2023-01-17T14:07:49.349Z,8.86
2023-01-17T14:10:25.775Z,9.02
2023-01-17T14:12:54.550Z,8.98
2023-01-17T14:15:28.290Z,8.96
2023-01-17T14:17:59.565Z,9.02
2023-01-17T14:20:27.392Z,9.17
2023-01-17T14:23:00.757Z,8.92
2023-01-17T14:25:38.444Z,8.66
2023-01-17T14:28:26.349Z,8.70
2023-01-17T14:30:55.536Z,8.50
2023-01-17T14:33:28.079Z,8.66
2023-01-17T14:36:03.613Z,8.37
2023-01-17T14:38:33.008Z,8.31
2023-01-17T14:41:03.322Z,8.14
2023-01-17T14:43:33.396Z,8.09
2023-01-17T14:46:28.395Z,8.22
2023-01-17T14:49:04.315Z,8.33
2023-01-17T14:51:32.640Z,8.46
2023-01-17T14:54:01.823Z,8.23
2023-01-17T14:56:31.090Z,7.97
2023-01-17T14:59:14.896Z,8.23
2023-01-17T15:02:06.239Z,8.02
2023-01-17T15:04:35.179Z,8.06
2023-01-17T15:07:03.560Z,8.05
2023-01-17T15:09:37.830Z,7.91
2023-01-17T15:12:12.221Z,8.09
2023-01-17T15:14:43.105Z,7.96
2023-01-17T15:17:18.588Z,8.15
2023-01-17T15:20:15.876Z,8.00
2023-01-17T15:22:43.767Z,7.84
2023-01-17T15:25:11.822Z,7.70
2023-01-17T15:27:40.728Z,7.85
2023-01-17T15:30:14.830Z,7.79
2023-01-17T15:32:47.184Z,7.88
2023-01-17T15:35:20.096Z,7.68
2023-01-17T15:37:53.058Z,7.83
2023-01-17T15:40:23.535Z,7.73
2023-01-17T15:42:53.880Z,7.67
2023-01-17T15:45:29.148Z,7.64
2023-01-17T15:47:57.451Z,7.55
2023-01-17T15:50:29.859Z,7.54
2023-01-17T15:53:05.735Z,7.71
2023-01-17T15:55:38.434Z,7.57
2023-01-17T15:58:28.310Z,7.57
2023-01-17T16:00:56.636Z,7.54
2023-01-17T16:03:27.720Z,7.42
2023-01-17T16:05:56.890Z,7.45
2023-01-17T16:08:26.044Z,7.58
2023-01-17T16:10:55.934Z,7.67
2023-01-17T16:13:23.835Z,7.63
2023-01-17T16:15:51.600Z,7.46
2023-01-17T16:18:22.494Z,7.43
2023-01-17T16:20:55.207Z,7.70
2023-01-17T16:23:23.043Z,7.56
2023-01-17T16:25:51.189Z,7.53
2023-01-17T16:28:18.888Z,7.41
2023-01-17T16:30:46.747Z,7.15
2023-01-17T16:33:15.218Z,7.32
2023-01-17T16:35:42.812Z,7.35
2023-01-17T16:38:12.566Z,7.07
2023-01-17T16:40:42.381Z,7.02
2023-01-17T16:43:10.868Z,7.01
2023-01-17T16:45:43.634Z,7.09
2023-01-17T16:48:12.071Z,6.91
2023-01-17T16:50:44.703Z,6.90
2023-01-17T16:53:12.637Z,6.85
2023-01-17T16:55:42.263Z,6.91
2023-01-17T16:58:10.282Z,6.92
2023-01-17T17:00:39.862Z,6.87
2023-01-17T17:03:07.539Z,6.89
2023-01-17T17:05:35.126Z,6.83
2023-01-17T17:08:03.137Z,6.76
2023-01-17T17:10:30.976Z,6.63
2023-01-17T17:12:58.773Z,6.89
2023-01-17T17:15:26.696Z,6.88
2023-01-17T17:17:59.327Z,6.74
2023-01-17T17:20:30.031Z,6.69
2023-01-17T17:22:57.752Z,6.90
2023-01-17T17:25:26.952Z,6.80
2023-01-17T17:27:55.152Z,6.78
2023-01-17T17:30:22.966Z,6.81
2023-01-17T17:32:50.519Z,6.82
2023-01-17T17:35:18.458Z,6.77
2023-01-17T17:37:46.103Z,6.71
2023-01-17T17:40:15.289Z,6.71
2023-01-17T17:42:43.596Z,6.67
2023-01-17T17:45:11.525Z,6.54
2023-01-17T17:47:39.134Z,6.59
2023-01-17T17:50:10.720Z,6.70
2023-01-17T17:52:38.384Z,6.61
2023-01-17T17:55:07.125Z,6.53
2023-01-17T17:57:35.009Z,6.42
2023-01-17T18:00:05.195Z,6.52
2023-01-17T18:02:34.553Z,6.61
2023-01-17T18:05:02.905Z,6.46
2023-01-17T18:07:31.449Z,6.38
2023-01-17T18:09:59.403Z,6.57
2023-01-17T18:12:27.282Z,6.47
2023-01-17T18:14:54.981Z,6.30
2023-01-17T18:17:22.933Z,6.50
2023-01-17T18:19:50.927Z,6.51
2023-01-17T18:22:18.729Z,6.28
2023-01-17T18:24:46.692Z,6.25
2023-01-17T18:27:14.897Z,6.29
2023-01-17T18:29:47.888Z,6.24
2023-01-17T18:32:16.135Z,6.28
2023-01-17T18:34:44.062Z,6.24
2023-01-17T18:37:11.722Z,6.23
2023-01-17T18:39:47.525Z,6.23
2023-01-17T18:42:15.880Z,6.14
2023-01-17T18:44:44.297Z,6.34
2023-01-17T18:47:12.128Z,6.22
2023-01-17T18:49:43.033Z,6.23
2023-01-17T18:52:11.361Z,6.17
2023-01-17T18:54:39.318Z,6.12
2023-01-17T18:57:08.154Z,6.27
2023-01-17T18:59:36.595Z,6.21
2023-01-17T19:02:05.455Z,6.09
2023-01-17T19:04:33.396Z,6.24
2023-01-17T19:07:01.527Z,6.13
2023-01-17T19:09:29.555Z,6.20
2023-01-17T19:11:57.599Z,6.22
2023-01-17T19:14:27.025Z,5.99
2023-01-17T19:16:56.025Z,6.11
2023-01-17T19:19:24.047Z,6.00
2023-01-17T19:21:52.403Z,5.97
2023-01-17T19:24:20.333Z,6.10
2023-01-17T19:26:50.280Z,5.90
2023-01-17T19:29:18.464Z,5.73
2023-01-17T19:31:46.652Z,5.89
2023-01-17T19:34:14.662Z,5.93
2023-01-17T19:36:42.901Z,5.83
2023-01-17T19:39:10.975Z,5.84
2023-01-17T19:41:43.932Z,5.99
2023-01-17T19:44:14.855Z,6.04
2023-01-17T19:46:42.672Z,5.79
2023-01-17T19:49:10.530Z,5.91
2023-01-17T19:51:38.885Z,5.85
2023-01-17T19:54:07.141Z,5.83
2023-01-17T19:56:36.182Z,6.11
2023-01-17T19:59:04.584Z,6.05
2023-01-17T20:01:34.080Z,6.02
2023-01-17T20:04:04.137Z,5.93
2023-01-17T20:06:35.054Z,6.21
2023-01-17T20:09:05.584Z,6.13
2023-01-17T20:11:36.226Z,6.20
2023-01-17T20:14:04.688Z,6.22
2023-01-17T20:16:35.659Z,6.20
2023-01-17T20:19:08.859Z,6.22
2023-01-17T20:21:36.951Z,6.20
2023-01-17T20:24:06.002Z,6.11
2023-01-17T20:26:34.962Z,6.11
2023-01-17T20:29:08.627Z,6.08
2023-01-17T20:31:39.252Z,6.06
2023-01-17T20:34:09.208Z,6.11
2023-01-17T20:36:37.635Z,6.17
2023-01-17T20:39:07.974Z,6.25
2023-01-17T20:41:38.427Z,6.31
2023-01-17T20:44:07.707Z,6.19
2023-01-17T20:46:42.913Z,6.27
2023-01-17T20:49:16.962Z,6.29
2023-01-17T20:51:46.283Z,6.36
2023-01-17T20:54:16.407Z,6.38
2023-01-17T20:56:44.986Z,6.29
2023-01-17T20:59:15.199Z,6.31
2023-01-17T21:01:44.028Z,6.35
2023-01-17T21:04:14.625Z,6.33
2023-01-17T21:06:43.074Z,6.37
2023-01-17T21:09:13.385Z,6.44
2023-01-17T21:11:41.069Z,6.53
2023-01-17T21:14:08.628Z,6.58
2023-01-17T21:16:36.737Z,6.68
2023-01-17T21:19:05.330Z,6.67
2023-01-17T21:21:32.962Z,6.73
2023-01-17T21:24:00.914Z,6.64
2023-01-17T21:26:28.672Z,6.77
2023-01-17T21:28:56.506Z,6.72
2023-01-17T21:31:29.581Z,6.75
2023-01-17T21:34:03.791Z,6.88
2023-01-17T21:36:52.274Z,6.85
2023-01-17T21:39:20.277Z,6.90
2023-01-17T21:41:48.537Z,6.82
2023-01-17T21:44:21.008Z,6.82
2023-01-17T21:46:49.614Z,6.89
2023-01-17T21:49:17.800Z,6.93
2023-01-17T21:51:46.005Z,6.82
2023-01-17T21:54:13.915Z,7.04
2023-01-17T21:56:41.623Z,6.90
2023-01-17T21:59:09.540Z,6.97
2023-01-17T22:01:38.070Z,7.30
2023-01-17T22:04:06.328Z,7.23
2023-01-17T22:06:34.127Z,7.24
2023-01-17T22:09:01.879Z,7.26
2023-01-17T22:11:29.831Z,7.24
2023-01-17T22:13:59.189Z,7.45
2023-01-17T22:16:27.078Z,7.37
2023-01-17T22:18:56.158Z,7.53
2023-01-17T22:21:26.375Z,7.59
2023-01-17T22:23:56.600Z,7.94
2023-01-17T22:26:27.381Z,7.92
2023-01-17T22:28:55.052Z,8.06
2023-01-17T22:31:26.993Z,7.99
2023-01-17T22:33:56.212Z,7.91
2023-01-17T22:36:25.604Z,8.08
2023-01-17T22:38:53.542Z,7.64
2023-01-17T22:41:23.880Z,7.48
2023-01-17T22:43:53.292Z,7.88
2023-01-17T22:46:26.323Z,8.10
2023-01-17T22:48:55.002Z,8.09
2023-01-17T22:51:24.252Z,8.05
2023-01-17T22:53:54.389Z,8.04
2023-01-17T22:56:24.524Z,8.00
2023-01-17T22:58:52.777Z,7.99
2023-01-17T23:01:25.684Z,8.03
2023-01-17T23:03:59.070Z,7.97
2023-01-17T23:06:28.744Z,8.06
2023-01-17T23:08:58.978Z,8.03
2023-01-17T23:11:34.454Z,7.86
2023-01-17T23:14:02.392Z,8.12
2023-01-17T23:16:30.073Z,8.06
2023-01-17T23:18:57.779Z,7.90
2023-01-17T23:21:25.841Z,7.50
2023-01-17T23:23:53.463Z,7.62
2023-01-17T23:26:21.156Z,7.65
2023-01-17T23:28:49.088Z,7.53
2023-01-17T23:31:16.838Z,7.33
2023-01-17T23:33:44.487Z,7.63
2023-01-17T23:36:12.313Z,7.47
2023-01-17T23:38:39.993Z,7.63
2023-01-17T23:41:08.644Z,7.79
2023-01-17T23:43:36.949Z,7.86
2023-01-17T23:46:05.504Z,7.66
2023-01-17T23:48:33.132Z,7.87
2023-01-17T23:51:03.125Z,7.68
2023-01-17T23:53:30.733Z,7.40
2023-01-17T23:55:58.379Z,7.34
2023-01-17T23:58:27.334Z,7.30
